Time;durP1;ratioP1;P1;durP2;ratioP2;P2;SDS_P1;SDS_P2;PMS_P1;PMS_P2;Temp;Humidity;BMP_temperature;BMP_pressure;BME280_temperature;BME280_humidity;BME280_pressure;Samples;Min_cycle;Max_cycle;Signal;HPM_P1;HPM_P2
2020/12/31 00:00:59;;;;;;;10.57;6.77;;;4.00;99.90;;;;;;5051596;28;20261;-64
2020/12/31 00:03:25;;;;;;;10.40;6.60;;;4.00;99.90;;;;;;5072077;28;20223;-64
2020/12/31 00:05:50;;;;;;;8.27;6.77;;;4.00;99.90;;;;;;5071744;28;20214;-65
2020/12/31 00:08:16;;;;;;;9.30;6.83;;;3.90;99.90;;;;;;5052118;28;20559;-65
2020/12/31 00:10:42;;;;;;;10.00;7.07;;;3.90;99.90;;;;;;5051658;28;20206;-65
2020/12/31 00:13:07;;;;;;;12.83;6.97;;;3.90;99.90;;;;;;5066685;28;20174;-65
2020/12/31 00:15:33;;;;;;;8.60;6.90;;;3.90;99.90;;;;;;5071929;28;20182;-65
2020/12/31 00:17:59;;;;;;;11.13;7.00;;;3.90;99.90;;;;;;5056271;28;20656;-65
2020/12/31 00:20:24;;;;;;;10.47;6.67;;;3.90;99.90;;;;;;5063925;28;20231;-65
2020/12/31 00:22:50;;;;;;;13.00;7.97;;;3.90;99.90;;;;;;5071696;28;20538;-65
2020/12/31 00:25:16;;;;;;;10.73;8.37;;;3.90;99.90;;;;;;5060706;28;20209;-65
2020/12/31 00:27:42;;;;;;;12.00;8.03;;;3.90;99.90;;;;;;5051537;28;20182;-65
2020/12/31 00:30:10;;;;;;;10.70;7.83;;;3.90;99.90;;;;;;5067963;28;20205;-64
2020/12/31 00:32:36;;;;;;;11.00;7.77;;;3.80;99.90;;;;;;5071142;28;20169;-65
2020/12/31 00:35:05;;;;;;;11.47;7.97;;;3.90;99.90;;;;;;5056078;28;20195;-65
2020/12/31 00:37:36;;;;;;;12.33;7.77;;;3.90;99.90;;;;;;5051642;28;20186;-65
2020/12/31 00:40:04;;;;;;;12.87;8.80;;;3.80;99.90;;;;;;5065925;28;20186;-64
2020/12/31 00:42:30;;;;;;;14.10;9.23;;;3.80;99.90;;;;;;5071641;28;20544;-64
2020/12/31 00:44:55;;;;;;;11.67;8.37;;;3.80;99.90;;;;;;5057582;28;20217;-64
2020/12/31 00:47:21;;;;;;;13.20;8.70;;;3.80;99.90;;;;;;5070192;28;20185;-65
2020/12/31 00:49:46;;;;;;;9.77;7.47;;;3.80;99.90;;;;;;5059302;28;20248;-65
2020/12/31 00:52:12;;;;;;;10.80;7.83;;;3.80;99.90;;;;;;5051231;28;20179;-65
2020/12/31 00:54:38;;;;;;;11.80;8.17;;;3.80;99.90;;;;;;5061035;28;20198;-64
2020/12/31 00:57:03;;;;;;;10.60;7.50;;;3.80;99.90;;;;;;5071306;28;20173;-65
2020/12/31 00:59:29;;;;;;;10.43;7.50;;;3.80;99.90;;;;;;5063000;28;20266;-65
2020/12/31 01:01:54;;;;;;;10.00;7.73;;;3.80;99.90;;;;;;5051034;28;20255;-64
2020/12/31 01:04:20;;;;;;;12.97;8.10;;;3.80;99.90;;;;;;5057403;28;20674;-65
2020/12/31 01:06:46;;;;;;;10.60;7.97;;;3.90;99.90;;;;;;5071305;28;20182;-64
2020/12/31 01:09:11;;;;;;;10.30;7.77;;;3.90;99.90;;;;;;5065153;28;20206;-65
2020/12/31 01:11:38;;;;;;;17.17;9.20;;;3.90;99.90;;;;;;5050986;28;20225;-64
2020/12/31 01:14:08;;;;;;;10.73;8.03;;;3.90;99.90;;;;;;5054928;28;20213;-65
2020/12/31 01:16:34;;;;;;;12.50;9.03;;;3.90;99.90;;;;;;5051309;28;20171;-65
2020/12/31 01:19:00;;;;;;;10.13;8.37;;;3.90;99.90;;;;;;5053510;28;20171;-65
2020/12/31 01:21:26;;;;;;;11.73;8.70;;;3.90;99.90;;;;;;5071273;28;20231;-65
2020/12/31 01:23:52;;;;;;;14.43;8.70;;;3.80;99.90;;;;;;5065986;28;20258;-65
2020/12/31 01:26:37;;;;;;;11.77;8.27;;;3.80;99.90;;;;;;5051089;28;20198;-65
2020/12/31 01:29:04;;;;;;;12.20;8.43;;;3.80;99.90;;;;;;5056256;28;20216;-64
2020/12/31 01:31:30;;;;;;;14.10;9.27;;;3.90;99.90;;;;;;5070908;28;20167;-65
2020/12/31 01:33:56;;;;;;;13.13;8.90;;;3.90;99.90;;;;;;5066315;28;20182;-65
2020/12/31 01:36:22;;;;;;;12.50;8.67;;;3.90;99.90;;;;;;5050979;28;20186;-65
2020/12/31 01:38:47;;;;;;;10.23;8.20;;;3.90;99.90;;;;;;5053309;28;20179;-65
2020/12/31 01:41:14;;;;;;;11.90;8.07;;;3.90;99.90;;;;;;5070927;28;20205;-64
2020/12/31 01:43:39;;;;;;;11.53;8.73;;;3.90;99.90;;;;;;5033125;28;20535;-65
2020/12/31 01:46:11;;;;;;;12.77;9.53;;;3.90;99.90;;;;;;5035053;28;20209;-64
2020/12/31 01:48:38;;;;;;;11.73;9.13;;;3.90;99.90;;;;;;5073490;28;20239;-64
2020/12/31 01:51:04;;;;;;;13.40;8.93;;;3.90;99.90;;;;;;5074209;28;20198;-64
2020/12/31 01:53:29;;;;;;;13.80;9.57;;;3.90;99.90;;;;;;5056634;28;20205;-64
2020/12/31 01:55:58;;;;;;;14.53;8.63;;;3.80;99.90;;;;;;5054439;28;20201;-65
2020/12/31 01:58:24;;;;;;;15.43;9.60;;;3.90;99.90;;;;;;5070873;28;20655;-64
2020/12/31 02:00:50;;;;;;;12.97;9.23;;;3.90;99.90;;;;;;5074432;28;20667;-64
2020/12/31 02:03:16;;;;;;;12.80;8.47;;;3.90;99.90;;;;;;5059511;28;20178;-64
2020/12/31 02:05:44;;;;;;;14.63;9.20;;;3.80;99.90;;;;;;5054967;28;20222;-64
2020/12/31 02:08:10;;;;;;;13.03;8.80;;;3.80;99.90;;;;;;5066582;28;20212;-65
2020/12/31 02:10:35;;;;;;;12.70;9.40;;;3.80;99.90;;;;;;5062772;28;20309;-64
2020/12/31 02:13:01;;;;;;;16.63;10.40;;;3.80;99.90;;;;;;5054108;28;20194;-65
2020/12/31 02:15:26;;;;;;;12.20;8.83;;;3.70;99.90;;;;;;5062931;28;20243;-65
2020/12/31 02:17:52;;;;;;;16.13;10.47;;;3.70;99.90;;;;;;5074091;28;20166;-65
2020/12/31 02:20:18;;;;;;;14.13;9.17;;;3.70;99.90;;;;;;5066501;28;20217;-65
2020/12/31 02:22:43;;;;;;;17.97;10.10;;;3.70;99.90;;;;;;5053977;28;20175;-65
2020/12/31 02:25:09;;;;;;;13.83;9.03;;;3.70;99.90;;;;;;5059427;28;20679;-65
2020/12/31 02:27:34;;;;;;;13.73;9.70;;;3.70;99.90;;;;;;5074040;28;20185;-65
2020/12/31 02:30:00;;;;;;;14.47;10.03;;;3.70;99.90;;;;;;5054347;28;20205;-65
2020/12/31 02:32:26;;;;;;;13.50;9.20;;;3.70;99.90;;;;;;5053733;28;20175;-65
2020/12/31 02:34:51;;;;;;;15.13;10.47;;;3.70;99.90;;;;;;5068859;28;20682;-65
2020/12/31 02:37:17;;;;;;;15.67;10.90;;;3.70;99.90;;;;;;5073673;28;20261;-65
2020/12/31 02:39:42;;;;;;;18.80;10.53;;;3.70;99.90;;;;;;5058075;28;20179;-65
2020/12/31 02:42:08;;;;;;;16.20;9.87;;;3.70;99.90;;;;;;5053322;28;20555;-65
2020/12/31 02:44:34;;;;;;;14.00;10.17;;;3.70;99.90;;;;;;5066809;28;20245;-65
2020/12/31 02:46:59;;;;;;;14.17;10.20;;;3.70;99.90;;;;;;5073477;28;20212;-65
2020/12/31 02:49:25;;;;;;;17.80;10.73;;;3.70;99.90;;;;;;5071745;28;20205;-65
2020/12/31 02:51:50;;;;;;;15.53;9.27;;;3.70;99.90;;;;;;5073317;28;20178;-65
2020/12/31 02:54:16;;;;;;;13.20;8.77;;;3.70;99.90;;;;;;5063008;28;20175;-65
2020/12/31 02:56:41;;;;;;;11.77;9.23;;;3.70;99.90;;;;;;5053291;28;20167;-64
2020/12/31 02:59:07;;;;;;;13.73;8.20;;;3.70;99.90;;;;;;5061618;28;20261;-64
2020/12/31 03:01:32;;;;;;;11.53;8.23;;;3.70;99.90;;;;;;5067322;28;20179;-65
2020/12/31 03:03:58;;;;;;;11.57;7.90;;;3.70;99.90;;;;;;5052272;28;20179;-65
2020/12/31 03:06:24;;;;;;;9.03;6.77;;;3.70;99.90;;;;;;5057147;28;20197;-64
2020/12/31 03:08:49;;;;;;;8.87;7.47;;;3.70;99.90;;;;;;5073038;28;20648;-65
2020/12/31 03:11:17;;;;;;;9.80;7.83;;;3.80;99.90;;;;;;5070618;28;20307;-65
2020/12/31 03:13:43;;;;;;;9.03;7.37;;;3.80;99.90;;;;;;5053128;28;20198;-65
2020/12/31 03:16:09;;;;;;;14.13;8.90;;;3.80;99.90;;;;;;5053413;28;20734;-65
2020/12/31 03:18:34;;;;;;;12.23;8.77;;;3.80;99.90;;;;;;5072966;28;20312;-65
2020/12/31 03:21:00;;;;;;;13.77;8.23;;;3.80;99.90;;;;;;5072704;28;20203;-65
2020/12/31 03:23:25;;;;;;;11.10;7.57;;;3.80;99.90;;;;;;5053912;28;20210;-65
2020/12/31 03:25:51;;;;;;;15.37;8.70;;;3.80;99.90;;;;;;5060623;28;20205;-64
2020/12/31 03:28:17;;;;;;;12.17;8.70;;;3.80;99.90;;;;;;5073065;28;20170;-65
2020/12/31 03:30:44;;;;;;;13.27;9.50;;;3.80;99.90;;;;;;5057608;28;20210;-65
2020/12/31 03:33:13;;;;;;;10.93;7.57;;;3.70;99.90;;;;;;5052933;28;20232;-65
2020/12/31 03:35:44;;;;;;;13.53;8.87;;;3.70;99.90;;;;;;5065910;28;20194;-65
2020/12/31 03:38:10;;;;;;;10.03;7.93;;;3.70;99.90;;;;;;5072392;28;20188;-65
2020/12/31 03:40:37;;;;;;;15.63;9.70;;;3.70;99.90;;;;;;5059450;28;20597;-65
2020/12/31 03:43:03;;;;;;;12.83;8.47;;;3.70;99.90;;;;;;5052790;28;20261;-65
2020/12/31 03:45:29;;;;;;;13.60;9.47;;;3.70;99.90;;;;;;5063131;28;20217;-64
2020/12/31 03:47:54;;;;;;;17.53;9.17;;;3.80;99.90;;;;;;5072320;28;20184;-65
2020/12/31 03:50:21;;;;;;;14.83;9.33;;;3.80;99.90;;;;;;5062498;28;20614;-65
2020/12/31 03:52:47;;;;;;;15.03;9.37;;;3.70;99.90;;;;;;5052149;28;20167;-65
2020/12/31 03:55:13;;;;;;;15.63;9.77;;;3.80;99.90;;;;;;5059793;28;20205;-65
2020/12/31 03:57:38;;;;;;;18.00;10.13;;;3.80;99.90;;;;;;5067270;28;20182;-64
2020/12/31 04:00:05;;;;;;;12.33;9.10;;;3.80;99.90;;;;;;5051815;28;20186;-64
2020/12/31 04:02:30;;;;;;;12.03;9.40;;;3.80;99.90;;;;;;5055462;28;20534;-65
2020/12/31 04:04:57;;;;;;;15.30;8.87;;;3.80;99.90;;;;;;5071969;28;20198;-65
2020/12/31 04:07:22;;;;;;;12.77;9.33;;;3.80;99.90;;;;;;5069357;28;20182;-65
2020/12/31 04:09:48;;;;;;;15.27;10.57;;;3.80;99.90;;;;;;5050791;28;20584;-65
2020/12/31 04:12:13;;;;;;;13.07;9.80;;;3.80;99.90;;;;;;5051704;28;20255;-64
2020/12/31 04:14:39;;;;;;;15.03;10.43;;;3.80;99.90;;;;;;5071186;28;20194;-64
2020/12/31 04:17:05;;;;;;;18.20;10.53;;;3.80;99.90;;;;;;5071929;28;20277;-64
2020/12/31 04:19:30;;;;;;;14.93;10.27;;;3.80;99.90;;;;;;5054023;28;20484;-64
2020/12/31 04:21:56;;;;;;;14.70;10.37;;;3.80;99.90;;;;;;5051405;28;20538;-64
2020/12/31 04:24:21;;;;;;;15.03;10.07;;;3.80;99.90;;;;;;5067719;28;20185;-65
2020/12/31 04:26:53;;;;;;;14.27;9.27;;;3.80;99.90;;;;;;5057676;28;20193;-64
2020/12/31 04:29:18;;;;;;;15.70;9.77;;;3.90;99.90;;;;;;5063529;28;20288;-68
2020/12/31 04:31:44;;;;;;;17.10;10.27;;;3.90;99.90;;;;;;5071517;28;20634;-65
2020/12/31 04:34:11;;;;;;;14.10;9.93;;;3.90;99.90;;;;;;5061016;28;20194;-64
2020/12/31 04:36:36;;;;;;;13.43;9.37;;;3.90;99.90;;;;;;5051652;28;20167;-64
2020/12/31 04:39:03;;;;;;;14.07;10.13;;;3.90;99.90;;;;;;5059758;28;20186;-65
2020/12/31 04:41:29;;;;;;;13.33;9.77;;;3.90;99.90;;;;;;5071472;28;20178;-65
2020/12/31 04:43:56;;;;;;;14.97;9.87;;;3.90;99.90;;;;;;5064551;28;20733;-65
2020/12/31 04:46:22;;;;;;;13.10;9.67;;;3.90;99.90;;;;;;5052213;28;20210;-65
2020/12/31 04:49:24;;;;;;;12.03;9.13;;;3.80;99.90;;;;;;5056124;28;20170;-65
2020/12/31 04:51:53;;;;;;;11.60;8.93;;;3.80;99.90;;;;;;5063786;28;20196;-65
2020/12/31 04:54:19;;;;;;;13.90;9.50;;;3.80;99.90;;;;;;5062553;28;20672;-65
2020/12/31 04:56:46;;;;;;;13.17;9.70;;;3.80;99.90;;;;;;5051352;28;20193;-65
2020/12/31 04:59:12;;;;;;;13.03;9.03;;;3.80;99.90;;;;;;5058122;28;20182;-65
2020/12/31 05:01:41;;;;;;;16.27;8.53;;;3.70;99.90;;;;;;5071228;28;20676;-65
2020/12/31 05:04:07;;;;;;;14.50;9.37;;;3.80;99.90;;;;;;5065439;28;20185;-65
2020/12/31 05:06:35;;;;;;;11.57;8.93;;;3.80;99.90;;;;;;5051342;28;20175;-65
2020/12/31 05:09:16;;;;;;;12.17;8.90;;;3.80;99.90;;;;;;5054336;28;20201;-65
2020/12/31 05:11:44;;;;;;;11.67;8.27;;;3.80;99.90;;;;;;5071207;28;20185;-65
2020/12/31 05:14:09;;;;;;;16.23;8.03;;;3.70;99.90;;;;;;5066197;28;20182;-65
2020/12/31 05:16:35;;;;;;;14.70;9.07;;;3.70;99.90;;;;;;5051350;28;20229;-65
2020/12/31 05:19:01;;;;;;;8.83;6.97;;;3.70;99.90;;;;;;5056120;28;20712;-64
2020/12/31 05:21:27;;;;;;;12.33;7.17;;;3.70;99.90;;;;;;5074930;28;20227;-65
2020/12/31 05:23:52;;;;;;;9.80;7.60;;;3.60;99.90;;;;;;5074158;28;20651;-65
2020/12/31 05:26:29;;;;;;;11.17;6.87;;;3.60;99.90;;;;;;5073063;28;20202;-65
2020/12/31 05:28:54;;;;;;;7.87;5.73;;;3.60;99.90;;;;;;5074061;28;20174;-65
2020/12/31 05:31:21;;;;;;;8.03;6.60;;;3.60;99.90;;;;;;5054733;28;20212;-65
2020/12/31 05:33:47;;;;;;;8.90;5.70;;;3.60;99.90;;;;;;5054945;28;20259;-65
2020/12/31 05:36:16;;;;;;;6.63;5.50;;;3.60;99.90;;;;;;5073181;28;20198;-65
2020/12/31 05:38:46;;;;;;;7.23;5.93;;;3.60;99.90;;;;;;5074727;28;20211;-65
2020/12/31 05:41:13;;;;;;;8.40;5.67;;;3.60;99.90;;;;;;5056421;28;20186;-65
2020/12/31 05:43:40;;;;;;;7.70;5.67;;;3.60;99.90;;;;;;5054747;28;20244;-65
2020/12/31 05:46:15;;;;;;;7.40;5.83;;;3.60;99.90;;;;;;5070797;28;20214;-65
2020/12/31 05:48:40;;;;;;;6.17;5.03;;;3.50;99.90;;;;;;5074666;28;20192;-65
2020/12/31 05:51:26;;;;;;;7.80;5.23;;;3.50;99.90;;;;;;5058262;28;20194;-65
2020/12/31 05:53:53;;;;;;;7.13;5.37;;;3.50;99.90;;;;;;5067802;28;20169;-65
2020/12/31 05:56:20;;;;;;;7.87;4.50;;;3.50;99.90;;;;;;5074640;28;20186;-66
2020/12/31 05:58:50;;;;;;;7.60;5.07;;;3.50;99.90;;;;;;5062162;28;20178;-65
2020/12/31 06:01:17;;;;;;;8.27;5.10;;;3.50;99.90;;;;;;5054214;28;20181;-66
2020/12/31 06:03:53;;;;;;;6.03;5.20;;;3.50;99.90;;;;;;5065164;28;20186;-66
2020/12/31 06:06:22;;;;;;;5.70;4.63;;;3.50;99.90;;;;;;5074367;28;20202;-65
2020/12/31 06:08:56;;;;;;;5.10;4.60;;;3.50;99.90;;;;;;5062419;28;20269;-65
2020/12/31 06:11:48;;;;;;;5.77;4.40;;;3.50;99.90;;;;;;5054094;28;20166;-65
2020/12/31 06:14:19;;;;;;;6.67;4.83;;;3.50;99.90;;;;;;5067933;28;20175;-65
2020/12/31 06:16:58;;;;;;;6.50;5.27;;;3.40;99.90;;;;;;5074184;28;20166;-65
2020/12/31 06:19:33;;;;;;;7.67;5.17;;;3.40;99.90;;;;;;5072466;28;20182;-65
2020/12/31 06:22:05;;;;;;;6.83;4.73;;;3.40;99.90;;;;;;5073574;28;20181;-64
2020/12/31 06:24:32;;;;;;;8.63;5.83;;;3.40;99.90;;;;;;5059055;28;20294;-64
2020/12/31 06:27:07;;;;;;;7.43;5.10;;;3.40;99.90;;;;;;5055772;28;20640;-65
2020/12/31 06:29:42;;;;;;;7.63;5.40;;;3.40;99.90;;;;;;5072991;28;20272;-65
2020/12/31 06:32:30;;;;;;;6.00;4.47;;;3.50;99.90;;;;;;5069611;28;20192;-66
2020/12/31 06:35:02;;;;;;;6.83;4.20;;;3.50;99.90;;;;;;5053734;28;20185;-65
2020/12/31 06:37:29;;;;;;;5.77;4.10;;;3.40;99.90;;;;;;5058203;28;20193;-65
2020/12/31 06:40:22;;;;;;;4.97;4.20;;;3.40;99.90;;;;;;5073439;28;20323;-64
2020/12/31 06:43:11;;;;;;;4.13;3.73;;;3.40;99.90;;;;;;5066827;28;20201;-65
2020/12/31 06:45:44;;;;;;;4.23;3.63;;;3.40;99.90;;;;;;5057869;28;20218;-65
2020/12/31 06:48:25;;;;;;;5.53;4.47;;;3.40;99.90;;;;;;5064213;28;20186;-65
2020/12/31 06:50:58;;;;;;;4.57;3.90;;;3.40;99.90;;;;;;5053096;28;20198;-65
2020/12/31 06:53:35;;;;;;;4.30;3.90;;;3.40;99.90;;;;;;5063401;28;20209;-65
2020/12/31 06:56:10;;;;;;;4.03;3.63;;;3.40;99.90;;;;;;5073296;28;20213;-65
2020/12/31 06:58:37;;;;;;;3.27;2.97;;;3.40;99.90;;;;;;5062283;28;20223;-64
2020/12/31 07:01:22;;;;;;;3.73;3.43;;;3.50;99.90;;;;;;5051620;28;20240;-66
2020/12/31 07:03:48;;;;;;;8.07;3.97;;;3.50;99.90;;;;;;5064983;28;20770;-66
2020/12/31 07:06:22;;;;;;;4.00;3.53;;;3.40;99.90;;;;;;5073297;28;20277;-65
2020/12/31 07:08:49;;;;;;;4.77;3.97;;;3.50;99.90;;;;;;5054783;28;20187;-65
2020/12/31 07:11:27;;;;;;;5.53;4.47;;;3.50;99.90;;;;;;5032778;28;20260;-65
2020/12/31 07:13:52;;;;;;;9.87;5.53;;;3.50;99.90;;;;;;5055845;28;20185;-65
2020/12/31 07:16:37;;;;;;;10.00;5.73;;;3.50;99.90;;;;;;5072684;28;20190;-65
2020/12/31 07:19:03;;;;;;;8.57;5.67;;;3.50;99.90;;;;;;5060377;28;20179;-65
2020/12/31 07:21:30;;;;;;;7.10;5.53;;;3.50;99.90;;;;;;5052633;28;20679;-65
2020/12/31 07:23:56;;;;;;;9.43;6.47;;;3.40;99.90;;;;;;5062754;28;20182;-65
2020/12/31 07:26:25;;;;;;;11.07;6.70;;;3.40;99.90;;;;;;5073036;28;20189;-66
2020/12/31 07:28:52;;;;;;;8.23;6.73;;;3.40;99.90;;;;;;5062946;28;20258;-66
2020/12/31 07:31:39;;;;;;;10.20;6.60;;;3.40;99.90;;;;;;5052272;28;20611;-65
2020/12/31 07:34:22;;;;;;;10.40;7.20;;;3.40;99.90;;;;;;5062464;28;20505;-65
2020/12/31 07:37:06;;;;;;;10.90;7.30;;;3.40;99.90;;;;;;5072324;28;20530;-66
2020/12/31 07:39:34;;;;;;;10.40;7.43;;;3.40;99.90;;;;;;5070929;28;20178;-65
2020/12/31 07:42:15;;;;;;;9.97;7.80;;;3.40;99.90;;;;;;5071870;28;20177;-65
2020/12/31 07:44:48;;;;;;;9.87;8.03;;;3.40;99.90;;;;;;5058047;28;20210;-65
2020/12/31 07:47:15;;;;;;;8.00;6.70;;;3.40;99.90;;;;;;5052444;28;20175;-65
2020/12/31 07:49:45;;;;;;;9.60;7.33;;;3.40;99.90;;;;;;5065392;28;20217;-65
2020/12/31 07:52:11;;;;;;;7.87;6.60;;;3.30;99.90;;;;;;5071548;28;20166;-65
2020/12/31 07:54:36;;;;;;;9.43;7.17;;;3.30;99.90;;;;;;5059987;28;20206;-65
2020/12/31 07:57:04;;;;;;;9.37;6.83;;;3.30;99.90;;;;;;5052028;28;20178;-66
2020/12/31 07:59:30;;;;;;;8.20;6.33;;;3.30;99.90;;;;;;5062684;28;20256;-65
2020/12/31 08:02:03;;;;;;;10.10;7.73;;;3.30;99.90;;;;;;5071572;28;20257;-66
2020/12/31 08:04:29;;;;;;;10.13;8.27;;;3.30;99.90;;;;;;5062128;28;20672;-65
2020/12/31 08:06:54;;;;;;;13.13;8.10;;;3.30;99.90;;;;;;5056168;28;20189;-65
2020/12/31 08:09:23;;;;;;;9.07;7.40;;;3.30;99.90;;;;;;5071961;28;20194;-64
2020/12/31 08:11:51;;;;;;;11.80;7.80;;;3.30;99.90;;;;;;5068066;28;20225;-65
2020/12/31 08:14:17;;;;;;;9.70;8.20;;;3.30;99.90;;;;;;5051703;28;20179;-65
2020/12/31 08:16:54;;;;;;;11.63;8.40;;;3.30;99.90;;;;;;5053157;28;20171;-65
2020/12/31 08:19:20;;;;;;;10.03;7.87;;;3.30;99.90;;;;;;5071768;28;20166;-66
2020/12/31 08:21:46;;;;;;;10.97;8.10;;;3.30;99.90;;;;;;5069941;28;20542;-65
2020/12/31 08:24:17;;;;;;;15.33;9.13;;;3.30;99.90;;;;;;5071554;28;20299;-64
2020/12/31 08:26:58;;;;;;;11.83;8.17;;;3.40;99.90;;;;;;5053147;28;20187;-65
2020/12/31 08:29:27;;;;;;;14.03;10.07;;;3.40;99.90;;;;;;5070637;28;20466;-66
2020/12/31 08:31:54;;;;;;;12.77;9.33;;;3.40;99.90;;;;;;5060649;28;20178;-66
2020/12/31 08:34:26;;;;;;;12.87;9.40;;;3.40;99.90;;;;;;5050564;28;20170;-65
2020/12/31 08:36:53;;;;;;;16.13;9.83;;;3.50;99.90;;;;;;5050628;28;20194;-65
2020/12/31 08:39:20;;;;;;;15.83;10.40;;;3.50;99.90;;;;;;5050407;28;20166;-65
2020/12/31 08:41:59;;;;;;;14.27;9.67;;;3.50;99.90;;;;;;5051315;28;20206;-65
2020/12/31 08:44:27;;;;;;;12.97;10.10;;;3.50;99.90;;;;;;5050364;28;20288;-65
2020/12/31 08:46:53;;;;;;;16.63;10.87;;;3.60;99.90;;;;;;5051177;28;20542;-65
2020/12/31 08:49:26;;;;;;;13.80;10.23;;;3.60;99.90;;;;;;5051448;28;20269;-65
2020/12/31 08:51:52;;;;;;;17.13;10.77;;;3.60;99.90;;;;;;5051026;28;20582;-66
2020/12/31 08:54:18;;;;;;;17.60;11.37;;;3.60;99.90;;;;;;5051858;28;20163;-65
2020/12/31 08:56:44;;;;;;;17.13;10.50;;;3.60;99.90;;;;;;5051417;28;20236;-65
2020/12/31 08:59:17;;;;;;;16.07;10.53;;;3.60;99.90;;;;;;5051489;28;20250;-66
2020/12/31 09:01:45;;;;;;;15.83;10.47;;;3.60;99.90;;;;;;5050764;28;20613;-65
2020/12/31 09:04:14;;;;;;;17.23;12.13;;;3.60;99.90;;;;;;5051220;28;20171;-65
2020/12/31 09:06:43;;;;;;;14.90;10.73;;;3.60;99.90;;;;;;5052477;28;20673;-66
2020/12/31 09:09:26;;;;;;;13.67;10.00;;;3.70;99.90;;;;;;5052807;28;20193;-65
2020/12/31 09:12:08;;;;;;;14.97;10.00;;;3.70;99.90;;;;;;5070758;28;20174;-65
2020/12/31 09:14:36;;;;;;;14.53;10.93;;;3.70;99.90;;;;;;5065113;28;20209;-65
2020/12/31 09:17:23;;;;;;;14.93;10.63;;;3.70;99.90;;;;;;5051033;28;20167;-66
2020/12/31 09:19:52;;;;;;;15.57;10.90;;;3.70;99.90;;;;;;5057132;28;20806;-66
2020/12/31 09:22:18;;;;;;;15.03;10.73;;;3.80;99.90;;;;;;5070861;28;20170;-66
2020/12/31 09:24:44;;;;;;;14.80;10.80;;;3.80;99.90;;;;;;5064977;28;20252;-65
2020/12/31 09:27:10;;;;;;;15.77;10.23;;;3.80;99.90;;;;;;5050902;28;20178;-65
2020/12/31 09:29:35;;;;;;;16.20;10.70;;;3.90;99.90;;;;;;5054624;28;20187;-65
2020/12/31 09:32:01;;;;;;;12.20;9.93;;;3.90;99.90;;;;;;5070491;28;20174;-66
2020/12/31 09:34:27;;;;;;;16.10;10.77;;;3.90;99.90;;;;;;5068867;28;20676;-66
2020/12/31 09:37:00;;;;;;;14.13;9.80;;;4.00;99.90;;;;;;5050999;28;20535;-65
2020/12/31 09:39:25;;;;;;;15.53;9.43;;;4.00;99.90;;;;;;5052303;28;20175;-65
2020/12/31 09:41:51;;;;;;;11.90;9.47;;;4.00;99.90;;;;;;5070738;28;20175;-66
2020/12/31 09:44:17;;;;;;;14.20;9.70;;;4.00;99.90;;;;;;5070886;28;20174;-66
2020/12/31 09:46:42;;;;;;;12.57;8.67;;;4.00;99.90;;;;;;5052423;28;20175;-66
2020/12/31 09:49:08;;;;;;;14.90;9.50;;;4.00;99.90;;;;;;5050592;28;20645;-66
2020/12/31 09:51:33;;;;;;;11.10;8.50;;;4.00;99.90;;;;;;5051546;28;20171;-65
2020/12/31 09:54:00;;;;;;;10.43;7.27;;;4.00;99.90;;;;;;5067316;28;20455;-65
2020/12/31 09:56:29;;;;;;;11.70;7.77;;;3.90;99.90;;;;;;5073593;28;20210;-65
2020/12/31 09:58:55;;;;;;;8.73;6.83;;;3.90;99.90;;;;;;5056611;28;20199;-65
2020/12/31 10:01:22;;;;;;;9.00;6.97;;;3.70;99.90;;;;;;5049312;28;20186;-65
2020/12/31 10:03:48;;;;;;;7.83;5.93;;;3.70;99.90;;;;;;5063249;28;20185;-65
2020/12/31 10:06:14;;;;;;;9.87;7.13;;;3.60;99.90;;;;;;5073252;28;20194;-65
2020/12/31 10:08:41;;;;;;;13.63;7.93;;;3.60;99.90;;;;;;5063390;28;20586;-66
2020/12/31 10:11:07;;;;;;;11.40;7.70;;;3.60;99.90;;;;;;5053581;28;20217;-65
2020/12/31 10:13:32;;;;;;;10.40;6.97;;;3.60;99.90;;;;;;5063759;28;20174;-65
2020/12/31 10:16:02;;;;;;;9.50;7.13;;;3.50;99.90;;;;;;5073884;28;20277;-66
2020/12/31 10:18:27;;;;;;;10.37;7.23;;;3.50;99.90;;;;;;5065812;28;20178;-65
2020/12/31 10:20:53;;;;;;;11.73;8.67;;;3.50;99.90;;;;;;5059427;28;20181;-65
2020/12/31 10:23:18;;;;;;;13.00;7.90;;;3.40;99.90;;;;;;5074096;28;20178;-65
2020/12/31 10:25:46;;;;;;;10.13;7.03;;;3.50;99.90;;;;;;5072267;28;20666;-66
2020/12/31 10:28:12;;;;;;;10.50;7.40;;;3.50;99.90;;;;;;5074300;28;20174;-65
2020/12/31 10:30:37;;;;;;;9.93;7.63;;;3.50;99.90;;;;;;5067951;28;20197;-66
2020/12/31 10:33:03;;;;;;;12.10;7.33;;;3.40;99.90;;;;;;5056190;28;20512;-65
2020/12/31 10:35:28;;;;;;;9.80;7.40;;;3.40;99.90;;;;;;5074235;28;20201;-66
2020/12/31 10:37:54;;;;;;;9.67;7.20;;;3.40;99.90;;;;;;5072580;28;20178;-65
2020/12/31 10:40:19;;;;;;;7.77;6.63;;;3.40;99.90;;;;;;5053569;28;20616;-65
2020/12/31 10:42:45;;;;;;;10.77;7.43;;;3.40;99.90;;;;;;5053588;28;20206;-64
2020/12/31 10:47:39;;;;;;;10.20;6.57;;;3.40;99.90;;;;;;5031360;28;20222;-62
2020/12/31 10:50:04;;;;;;;8.77;6.80;;;3.40;99.90;;;;;;5032964;28;20278;-63
2020/12/31 10:52:30;;;;;;;10.23;6.60;;;3.30;99.90;;;;;;5032901;28;20259;-64
2020/12/31 10:54:56;;;;;;;11.73;7.07;;;3.20;99.90;;;;;;5032258;28;20215;-64
2020/12/31 10:57:21;;;;;;;7.63;6.83;;;3.20;99.90;;;;;;5032912;28;20171;-63
2020/12/31 10:59:47;;;;;;;9.70;7.17;;;3.20;99.90;;;;;;5033122;28;20179;-64
2020/12/31 11:02:12;;;;;;;8.93;6.50;;;3.20;99.90;;;;;;5032530;28;20183;-64
2020/12/31 11:04:38;;;;;;;7.70;6.90;;;3.30;99.90;;;;;;5033078;28;20171;-62
2020/12/31 11:07:03;;;;;;;10.60;6.87;;;3.40;99.90;;;;;;5032638;28;20618;-62
2020/12/31 11:09:29;;;;;;;10.57;6.33;;;3.30;99.90;;;;;;5033235;28;20196;-63
2020/12/31 11:11:55;;;;;;;8.33;6.33;;;3.40;99.90;;;;;;5032336;28;20191;-62
2020/12/31 11:14:20;;;;;;;8.23;5.70;;;3.40;99.90;;;;;;5032634;28;20179;-64
2020/12/31 11:16:50;;;;;;;7.50;6.37;;;3.50;99.90;;;;;;5032385;28;20192;-65
2020/12/31 11:19:15;;;;;;;7.37;6.47;;;3.50;99.90;;;;;;5032535;28;20690;-63
2020/12/31 11:21:41;;;;;;;6.30;5.50;;;3.60;99.90;;;;;;5031287;28;20172;-62
2020/12/31 11:24:07;;;;;;;6.17;5.57;;;3.60;99.90;;;;;;5032980;28;20675;-63
2020/12/31 11:26:33;;;;;;;5.60;4.73;;;3.40;99.90;;;;;;5032201;28;20192;-63
2020/12/31 11:28:58;;;;;;;6.23;5.17;;;3.40;99.90;;;;;;5032499;28;20168;-63
2020/12/31 11:31:28;;;;;;;7.53;5.40;;;3.30;99.90;;;;;;5032202;28;20207;-64
2020/12/31 11:33:55;;;;;;;6.57;4.97;;;3.30;99.90;;;;;;5032422;28;20163;-63
2020/12/31 11:36:22;;;;;;;8.83;5.30;;;3.30;99.90;;;;;;5032030;28;20210;-64
2020/12/31 11:38:50;;;;;;;10.60;5.80;;;3.30;99.90;;;;;;5031929;28;20237;-63
2020/12/31 11:41:16;;;;;;;4.73;4.30;;;3.30;99.90;;;;;;5031826;28;20180;-64
2020/12/31 11:43:42;;;;;;;6.83;5.40;;;3.30;99.90;;;;;;5032155;28;20179;-64
2020/12/31 11:46:07;;;;;;;6.83;5.23;;;3.30;99.90;;;;;;5032058;28;20222;-63
2020/12/31 11:48:33;;;;;;;9.20;5.97;;;3.30;99.90;;;;;;5031519;28;20194;-65
2020/12/31 11:51:00;;;;;;;8.17;5.60;;;3.30;99.90;;;;;;5031522;28;20192;-64
2020/12/31 11:53:27;;;;;;;9.43;6.33;;;3.40;99.90;;;;;;5032312;28;20170;-63
2020/12/31 11:55:53;;;;;;;10.13;7.23;;;3.50;99.90;;;;;;5031652;28;20229;-63
2020/12/31 11:58:19;;;;;;;9.20;6.83;;;3.50;99.90;;;;;;5031943;28;20176;-64
2020/12/31 12:00:44;;;;;;;8.80;7.07;;;3.60;99.90;;;;;;5031439;28;20528;-64
2020/12/31 12:03:10;;;;;;;8.17;7.13;;;3.70;99.90;;;;;;5031823;28;20178;-64
2020/12/31 12:05:36;;;;;;;10.07;7.47;;;3.70;99.90;;;;;;5030440;28;20199;-64
2020/12/31 12:08:04;;;;;;;7.73;6.17;;;3.70;99.90;;;;;;5031496;28;20187;-64
2020/12/31 12:10:29;;;;;;;8.93;6.60;;;3.80;99.90;;;;;;5030972;28;20614;-63
2020/12/31 12:12:55;;;;;;;8.40;6.77;;;3.80;99.90;;;;;;5031487;28;20182;-64
2020/12/31 12:15:21;;;;;;;10.27;7.40;;;3.90;99.90;;;;;;5031499;28;20195;-63
2020/12/31 12:17:49;;;;;;;12.70;7.47;;;4.00;99.90;;;;;;5031573;28;20179;-64
2020/12/31 12:20:15;;;;;;;8.57;7.67;;;4.10;99.90;;;;;;5031601;28;20172;-63
2020/12/31 12:22:41;;;;;;;9.13;8.07;;;4.20;99.90;;;;;;5031449;28;20691;-61
2020/12/31 12:25:07;;;;;;;7.27;6.50;;;4.20;99.90;;;;;;5031164;28;20792;-64
2020/12/31 12:27:34;;;;;;;11.57;7.87;;;4.30;99.90;;;;;;5031127;28;20250;-64
2020/12/31 12:29:59;;;;;;;9.03;7.10;;;4.20;99.90;;;;;;5030681;28;20196;-63
2020/12/31 12:32:25;;;;;;;10.53;7.63;;;4.20;99.90;;;;;;5031620;28;20178;-64
2020/12/31 12:34:50;;;;;;;7.60;6.67;;;4.30;99.90;;;;;;5031113;28;20222;-64
2020/12/31 12:37:16;;;;;;;11.20;7.70;;;4.30;99.90;;;;;;5031528;28;20655;-64
2020/12/31 12:39:42;;;;;;;10.07;7.10;;;4.30;99.90;;;;;;5031138;28;20684;-64
2020/12/31 12:42:07;;;;;;;8.87;7.20;;;4.30;99.90;;;;;;5031105;28;20167;-63
2020/12/31 12:44:33;;;;;;;8.00;7.17;;;4.40;99.90;;;;;;5030957;28;20211;-64
2020/12/31 12:46:59;;;;;;;9.60;7.60;;;4.40;99.90;;;;;;5031059;28;20269;-64
2020/12/31 12:49:25;;;;;;;8.90;7.40;;;4.40;99.90;;;;;;5030980;28;20224;-64
2020/12/31 12:51:50;;;;;;;8.33;6.93;;;4.50;99.90;;;;;;5030854;28;20199;-63
2020/12/31 12:54:16;;;;;;;10.80;7.67;;;4.40;99.90;;;;;;5031084;28;20176;-63